Angoon, AK

5:33 AM AKST on March 06, 2015 (GMT -0900)
Angoon | Change Station
CLOSE
Current Station
Airport
Location: Angoon,
Elevation: 0 ft
Nearby Weather Stations

Elev 0 ft 57.50 °N, 134.59 °W | Updated 37 minutes ago

Overcast
Overcast
37 °F
Feels Like 37 °F
N
0
Wind Variable Wind from North

Today
High -- | Low -- °F
--% Chance of Precip.
Yesterday
High -- | Low -- °F
Precip. -- in
6:38 AM 5:41 PM
Full, 99% visible
Pressure 30.30 in
Visibility 10.0 miles
Clouds Overcast 600 ft
Dew Point 37 °F
Humidity 100%
Rainfall 0.00 in
Snow Depth Not available.
UV 0 out of 12
Pollen Not available.
Air Quality Not available.
Flu Activity Not available.
METAR PAGN 061356Z AUTO 00000KT 10SM OVC006 03/03 A3028 RMK AO2 TSNO T00270027 SLP258 $

More Conditions Fewer Conditions

Pressure 30.30 in
Visibility 10.0 miles
Clouds Overcast 600 ft
Dew Point 37 °F
Humidity 100%
Rainfall 0.00 in
Snow Depth Not available.
UV 0 out of 12
Pollen Not available.
Air Quality Not available.
Flu Activity Not available.
METAR PAGN 061356Z AUTO 00000KT 10SM OVC006 03/03 A3028 RMK AO2 TSNO T00270027 SLP258 $

More Conditions Fewer Conditions

10-Day Weather Forecast

Almanac

Astronomy

Mar. 06, 2015 Rise Set
Actual Time
Civil Twilight
Nautical Twilight
Astronomical Twilight
Moon
Length of Visible Light
Length of Day
Tomorrow will be .
, % of the Moon is Illuminated

Today's Extremes

State Highs State Lows

Community

WunderPhotos

Upload Photos

1,803,283 photos uploaded!

WunderBlogs® & News

Nearby

Air Quality

  Air Quality AQ Index Pollutant
Not available.

Snow Depth

Station Depth Elevation

Earthquake Activity

City Distance Mag. Time & Date
Minimum magnitude displayed is 2.5.

Coastal Water Temperatures

Place Temperature

Nearby Weather Stations